Terminal Aerodrome Forecast
Issued by NWS Shreveport, LA

Home | Current Version | Previous Version | Text Only | Print | Product List | Glossary On
Versions: 1 2 3 4 5 6 7 8 9 10 11 12 13 14 15 16 17 18 19 20 21
000
FTUS44 KSHV 052325
TAFMLU
TAF
KMLU 052325Z 0600/0624 05008KT 4SM -RA BR OVC004
     FM060600 27008KT 4SM -DZ BR OVC004
     FM061600 30006KT P6SM OVC009
     FM061900 34006KT P6SM OVC015=

USA.gov is the U.S. government's official web portal to all federal, state and local government web resources and services.